sensor_id;sensor_type;location;lat;lon;timestamp;P1;durP1;ratioP1;P2;durP2;ratioP2
30147;SDS011;16960;49.404;8.248;2023-03-31T00:01:17;1.50;;;0.77;;
30147;SDS011;16960;49.404;8.248;2023-03-31T00:03:44;2.63;;;0.70;;
30147;SDS011;16960;49.404;8.248;2023-03-31T00:06:11;1.50;;;0.60;;
30147;SDS011;16960;49.404;8.248;2023-03-31T00:08:42;1.13;;;0.80;;
30147;SDS011;16960;49.404;8.248;2023-03-31T00:11:10;0.80;;;0.60;;
30147;SDS011;16960;49.404;8.248;2023-03-31T00:13:37;1.40;;;0.70;;
30147;SDS011;16960;49.404;8.248;2023-03-31T00:16:05;2.40;;;0.93;;
30147;SDS011;16960;49.404;8.248;2023-03-31T00:18:33;1.70;;;1.07;;
30147;SDS011;16960;49.404;8.248;2023-03-31T00:21:10;1.27;;;0.70;;
30147;SDS011;16960;49.404;8.248;2023-03-31T00:23:48;1.10;;;0.60;;
30147;SDS011;16960;49.404;8.248;2023-03-31T00:26:16;1.00;;;0.70;;
30147;SDS011;16960;49.404;8.248;2023-03-31T00:28:43;3.23;;;1.10;;
30147;SDS011;16960;49.404;8.248;2023-03-31T00:31:10;2.40;;;1.03;;
30147;SDS011;16960;49.404;8.248;2023-03-31T00:33:37;1.57;;;0.60;;
30147;SDS011;16960;49.404;8.248;2023-03-31T00:36:04;2.40;;;1.10;;
30147;SDS011;16960;49.404;8.248;2023-03-31T00:38:32;1.60;;;0.60;;
30147;SDS011;16960;49.404;8.248;2023-03-31T00:40:59;1.63;;;1.40;;
30147;SDS011;16960;49.404;8.248;2023-03-31T00:43:29;2.13;;;1.10;;
30147;SDS011;16960;49.404;8.248;2023-03-31T00:45:59;2.13;;;0.87;;
30147;SDS011;16960;49.404;8.248;2023-03-31T00:48:31;1.80;;;0.90;;
30147;SDS011;16960;49.404;8.248;2023-03-31T00:51:02;3.40;;;0.90;;
30147;SDS011;16960;49.404;8.248;2023-03-31T00:53:32;1.40;;;0.70;;
30147;SDS011;16960;49.404;8.248;2023-03-31T00:56:02;1.30;;;0.90;;
30147;SDS011;16960;49.404;8.248;2023-03-31T00:58:35;1.87;;;0.83;;
30147;SDS011;16960;49.404;8.248;2023-03-31T01:01:08;2.17;;;0.80;;
30147;SDS011;16960;49.404;8.248;2023-03-31T01:03:38;2.10;;;0.80;;
30147;SDS011;16960;49.404;8.248;2023-03-31T01:06:06;1.33;;;0.70;;
30147;SDS011;16960;49.404;8.248;2023-03-31T01:08:34;2.60;;;1.03;;
30147;SDS011;16960;49.404;8.248;2023-03-31T01:11:05;1.13;;;0.67;;
30147;SDS011;16960;49.404;8.248;2023-03-31T01:13:35;1.23;;;0.50;;
30147;SDS011;16960;49.404;8.248;2023-03-31T01:16:04;1.00;;;0.90;;
30147;SDS011;16960;49.404;8.248;2023-03-31T01:18:31;3.10;;;0.90;;
30147;SDS011;16960;49.404;8.248;2023-03-31T01:21:25;2.23;;;0.60;;
30147;SDS011;16960;49.404;8.248;2023-03-31T01:24:26;1.67;;;0.70;;
30147;SDS011;16960;49.404;8.248;2023-03-31T01:30:41;0.73;;;0.60;;
30147;SDS011;16960;49.404;8.248;2023-03-31T01:36:35;1.00;;;0.70;;
30147;SDS011;16960;49.404;8.248;2023-03-31T01:42:24;2.60;;;0.87;;
30147;SDS011;16960;49.404;8.248;2023-03-31T01:45:00;1.10;;;0.97;;
30147;SDS011;16960;49.404;8.248;2023-03-31T01:47:34;2.53;;;1.10;;
30147;SDS011;16960;49.404;8.248;2023-03-31T01:50:05;1.10;;;0.60;;
30147;SDS011;16960;49.404;8.248;2023-03-31T01:52:37;0.93;;;0.70;;
30147;SDS011;16960;49.404;8.248;2023-03-31T01:55:15;1.63;;;0.70;;
30147;SDS011;16960;49.404;8.248;2023-03-31T01:57:49;1.23;;;0.50;;
30147;SDS011;16960;49.404;8.248;2023-03-31T02:00:21;1.30;;;0.77;;
30147;SDS011;16960;49.404;8.248;2023-03-31T02:02:54;1.30;;;0.63;;
30147;SDS011;16960;49.404;8.248;2023-03-31T02:05:25;3.00;;;0.80;;
30147;SDS011;16960;49.404;8.248;2023-03-31T02:07:56;1.23;;;0.53;;
30147;SDS011;16960;49.404;8.248;2023-03-31T02:10:29;1.13;;;0.87;;
30147;SDS011;16960;49.404;8.248;2023-03-31T02:12:58;2.80;;;0.80;;
30147;SDS011;16960;49.404;8.248;2023-03-31T02:15:27;1.90;;;0.63;;
30147;SDS011;16960;49.404;8.248;2023-03-31T02:17:57;1.13;;;0.80;;
30147;SDS011;16960;49.404;8.248;2023-03-31T02:20:27;1.63;;;0.70;;
30147;SDS011;16960;49.404;8.248;2023-03-31T02:22:56;1.37;;;0.57;;
30147;SDS011;16960;49.404;8.248;2023-03-31T02:25:25;2.10;;;1.13;;
30147;SDS011;16960;49.404;8.248;2023-03-31T02:27:59;1.73;;;0.80;;
30147;SDS011;16960;49.404;8.248;2023-03-31T02:30:30;1.20;;;0.70;;
30147;SDS011;16960;49.404;8.248;2023-03-31T02:33:02;1.10;;;0.60;;
30147;SDS011;16960;49.404;8.248;2023-03-31T02:35:29;1.57;;;1.00;;
30147;SDS011;16960;49.404;8.248;2023-03-31T02:37:59;3.13;;;0.80;;
30147;SDS011;16960;49.404;8.248;2023-03-31T02:40:26;2.10;;;0.60;;
30147;SDS011;16960;49.404;8.248;2023-03-31T02:42:56;1.20;;;0.60;;
30147;SDS011;16960;49.404;8.248;2023-03-31T02:45:36;1.17;;;0.40;;
30147;SDS011;16960;49.404;8.248;2023-03-31T02:48:06;1.30;;;0.50;;
30147;SDS011;16960;49.404;8.248;2023-03-31T02:50:39;1.33;;;0.80;;
30147;SDS011;16960;49.404;8.248;2023-03-31T02:53:36;1.40;;;0.83;;
30147;SDS011;16960;49.404;8.248;2023-03-31T02:56:18;1.37;;;0.83;;
30147;SDS011;16960;49.404;8.248;2023-03-31T02:59:02;1.03;;;0.67;;
30147;SDS011;16960;49.404;8.248;2023-03-31T03:01:42;1.90;;;0.97;;
30147;SDS011;16960;49.404;8.248;2023-03-31T03:04:25;1.97;;;0.70;;
30147;SDS011;16960;49.404;8.248;2023-03-31T03:07:05;2.40;;;0.83;;
30147;SDS011;16960;49.404;8.248;2023-03-31T03:09:41;1.50;;;0.73;;
30147;SDS011;16960;49.404;8.248;2023-03-31T03:12:16;0.83;;;0.43;;
30147;SDS011;16960;49.404;8.248;2023-03-31T03:14:52;1.70;;;0.77;;
30147;SDS011;16960;49.404;8.248;2023-03-31T03:17:26;1.63;;;0.53;;
30147;SDS011;16960;49.404;8.248;2023-03-31T03:19:58;1.00;;;0.80;;
30147;SDS011;16960;49.404;8.248;2023-03-31T03:22:26;1.10;;;0.60;;
30147;SDS011;16960;49.404;8.248;2023-03-31T03:24:53;1.10;;;0.70;;
30147;SDS011;16960;49.404;8.248;2023-03-31T03:27:20;0.90;;;0.80;;
30147;SDS011;16960;49.404;8.248;2023-03-31T03:29:47;1.23;;;0.70;;
30147;SDS011;16960;49.404;8.248;2023-03-31T03:32:16;1.60;;;1.07;;
30147;SDS011;16960;49.404;8.248;2023-03-31T03:34:43;1.07;;;0.60;;
30147;SDS011;16960;49.404;8.248;2023-03-31T03:37:10;4.50;;;1.00;;
30147;SDS011;16960;49.404;8.248;2023-03-31T03:39:37;2.70;;;0.67;;
30147;SDS011;16960;49.404;8.248;2023-03-31T03:42:04;1.73;;;0.70;;
30147;SDS011;16960;49.404;8.248;2023-03-31T03:44:31;1.30;;;0.60;;
30147;SDS011;16960;49.404;8.248;2023-03-31T03:46:58;4.60;;;1.20;;
30147;SDS011;16960;49.404;8.248;2023-03-31T03:49:26;1.67;;;0.60;;
30147;SDS011;16960;49.404;8.248;2023-03-31T03:51:53;1.57;;;0.80;;
30147;SDS011;16960;49.404;8.248;2023-03-31T03:54:20;1.83;;;0.90;;
30147;SDS011;16960;49.404;8.248;2023-03-31T03:56:47;1.63;;;0.80;;
30147;SDS011;16960;49.404;8.248;2023-03-31T03:59:14;1.47;;;0.93;;
30147;SDS011;16960;49.404;8.248;2023-03-31T04:01:41;3.27;;;1.00;;
30147;SDS011;16960;49.404;8.248;2023-03-31T04:04:08;1.30;;;0.60;;
30147;SDS011;16960;49.404;8.248;2023-03-31T04:06:36;1.47;;;0.73;;
30147;SDS011;16960;49.404;8.248;2023-03-31T04:09:03;0.90;;;0.60;;
30147;SDS011;16960;49.404;8.248;2023-03-31T04:11:30;1.23;;;0.70;;
30147;SDS011;16960;49.404;8.248;2023-03-31T04:13:58;0.97;;;0.70;;
30147;SDS011;16960;49.404;8.248;2023-03-31T04:16:25;1.07;;;0.60;;
30147;SDS011;16960;49.404;8.248;2023-03-31T04:18:51;1.03;;;0.67;;
30147;SDS011;16960;49.404;8.248;2023-03-31T04:21:21;2.83;;;0.53;;
30147;SDS011;16960;49.404;8.248;2023-03-31T04:23:50;1.53;;;0.83;;
30147;SDS011;16960;49.404;8.248;2023-03-31T04:26:23;0.90;;;0.50;;
30147;SDS011;16960;49.404;8.248;2023-03-31T04:28:55;1.70;;;0.80;;
30147;SDS011;16960;49.404;8.248;2023-03-31T04:31:24;2.20;;;1.13;;
30147;SDS011;16960;49.404;8.248;2023-03-31T04:33:54;0.47;;;0.40;;
30147;SDS011;16960;49.404;8.248;2023-03-31T04:36:25;0.70;;;0.53;;
30147;SDS011;16960;49.404;8.248;2023-03-31T04:38:54;1.43;;;0.40;;
30147;SDS011;16960;49.404;8.248;2023-03-31T04:41:21;1.47;;;0.70;;
30147;SDS011;16960;49.404;8.248;2023-03-31T04:43:49;1.03;;;0.50;;
30147;SDS011;16960;49.404;8.248;2023-03-31T04:46:16;2.00;;;0.63;;
30147;SDS011;16960;49.404;8.248;2023-03-31T04:48:43;1.20;;;0.53;;
30147;SDS011;16960;49.404;8.248;2023-03-31T04:51:10;1.00;;;0.73;;
30147;SDS011;16960;49.404;8.248;2023-03-31T04:53:39;2.30;;;0.77;;
30147;SDS011;16960;49.404;8.248;2023-03-31T04:56:07;0.90;;;0.57;;
30147;SDS011;16960;49.404;8.248;2023-03-31T04:58:34;1.37;;;1.00;;
30147;SDS011;16960;49.404;8.248;2023-03-31T05:01:01;1.23;;;0.80;;
30147;SDS011;16960;49.404;8.248;2023-03-31T05:03:30;1.37;;;0.60;;
30147;SDS011;16960;49.404;8.248;2023-03-31T05:05:57;1.53;;;0.77;;
30147;SDS011;16960;49.404;8.248;2023-03-31T05:08:24;1.30;;;0.70;;
30147;SDS011;16960;49.404;8.248;2023-03-31T05:10:51;2.30;;;1.03;;
30147;SDS011;16960;49.404;8.248;2023-03-31T05:13:19;1.80;;;0.70;;
30147;SDS011;16960;49.404;8.248;2023-03-31T05:15:46;1.50;;;0.60;;
30147;SDS011;16960;49.404;8.248;2023-03-31T05:18:14;0.80;;;0.50;;
30147;SDS011;16960;49.404;8.248;2023-03-31T05:20:42;1.57;;;0.60;;
30147;SDS011;16960;49.404;8.248;2023-03-31T05:23:09;1.13;;;0.80;;
30147;SDS011;16960;49.404;8.248;2023-03-31T05:25:35;1.00;;;0.57;;
30147;SDS011;16960;49.404;8.248;2023-03-31T05:28:02;0.97;;;0.70;;
30147;SDS011;16960;49.404;8.248;2023-03-31T05:30:31;2.07;;;0.70;;
30147;SDS011;16960;49.404;8.248;2023-03-31T05:32:58;1.77;;;0.73;;
30147;SDS011;16960;49.404;8.248;2023-03-31T05:35:25;1.40;;;0.70;;
30147;SDS011;16960;49.404;8.248;2023-03-31T05:37:52;2.40;;;0.80;;
30147;SDS011;16960;49.404;8.248;2023-03-31T05:40:19;1.80;;;0.63;;
30147;SDS011;16960;49.404;8.248;2023-03-31T05:42:46;1.73;;;0.80;;
30147;SDS011;16960;49.404;8.248;2023-03-31T05:45:13;1.30;;;0.70;;
30147;SDS011;16960;49.404;8.248;2023-03-31T05:47:42;1.13;;;0.80;;
30147;SDS011;16960;49.404;8.248;2023-03-31T05:50:09;0.90;;;0.60;;
30147;SDS011;16960;49.404;8.248;2023-03-31T05:52:36;0.70;;;0.60;;
30147;SDS011;16960;49.404;8.248;2023-03-31T05:55:03;1.20;;;0.57;;
30147;SDS011;16960;49.404;8.248;2023-03-31T05:57:30;1.00;;;0.60;;
30147;SDS011;16960;49.404;8.248;2023-03-31T05:59:57;2.80;;;0.87;;
30147;SDS011;16960;49.404;8.248;2023-03-31T06:02:24;1.27;;;0.57;;
30147;SDS011;16960;49.404;8.248;2023-03-31T06:04:53;1.07;;;0.50;;
30147;SDS011;16960;49.404;8.248;2023-03-31T06:07:20;1.53;;;0.70;;
30147;SDS011;16960;49.404;8.248;2023-03-31T06:09:49;0.93;;;0.60;;
30147;SDS011;16960;49.404;8.248;2023-03-31T06:12:16;1.20;;;0.70;;
30147;SDS011;16960;49.404;8.248;2023-03-31T06:14:43;1.33;;;0.93;;
30147;SDS011;16960;49.404;8.248;2023-03-31T06:17:09;1.83;;;1.03;;
30147;SDS011;16960;49.404;8.248;2023-03-31T06:19:36;1.13;;;0.70;;
30147;SDS011;16960;49.404;8.248;2023-03-31T06:22:05;0.87;;;0.60;;
30147;SDS011;16960;49.404;8.248;2023-03-31T06:24:32;3.13;;;0.90;;
30147;SDS011;16960;49.404;8.248;2023-03-31T06:26:59;1.37;;;1.00;;
30147;SDS011;16960;49.404;8.248;2023-03-31T06:29:27;1.67;;;1.00;;
30147;SDS011;16960;49.404;8.248;2023-03-31T06:31:54;0.73;;;0.70;;
30147;SDS011;16960;49.404;8.248;2023-03-31T06:34:21;0.83;;;0.80;;
30147;SDS011;16960;49.404;8.248;2023-03-31T06:36:48;1.93;;;1.10;;
30147;SDS011;16960;49.404;8.248;2023-03-31T06:39:17;1.23;;;1.10;;
30147;SDS011;16960;49.404;8.248;2023-03-31T06:41:44;2.23;;;1.37;;
30147;SDS011;16960;49.404;8.248;2023-03-31T06:44:11;1.63;;;1.23;;
30147;SDS011;16960;49.404;8.248;2023-03-31T06:46:40;2.63;;;1.10;;
30147;SDS011;16960;49.404;8.248;2023-03-31T06:49:07;1.27;;;0.90;;
30147;SDS011;16960;49.404;8.248;2023-03-31T06:51:34;1.27;;;1.17;;
30147;SDS011;16960;49.404;8.248;2023-03-31T06:54:01;3.50;;;1.00;;
30147;SDS011;16960;49.404;8.248;2023-03-31T06:56:29;2.03;;;1.20;;
30147;SDS011;16960;49.404;8.248;2023-03-31T06:58:56;2.07;;;1.23;;
30147;SDS011;16960;49.404;8.248;2023-03-31T07:01:23;3.97;;;1.90;;
30147;SDS011;16960;49.404;8.248;2023-03-31T07:03:50;2.67;;;2.07;;
30147;SDS011;16960;49.404;8.248;2023-03-31T07:06:17;4.50;;;2.40;;
30147;SDS011;16960;49.404;8.248;2023-03-31T07:08:44;2.67;;;2.47;;
30147;SDS011;16960;49.404;8.248;2023-03-31T07:11:11;4.37;;;2.57;;
30147;SDS011;16960;49.404;8.248;2023-03-31T07:13:39;6.67;;;2.57;;
30147;SDS011;16960;49.404;8.248;2023-03-31T07:16:06;3.70;;;2.33;;
30147;SDS011;16960;49.404;8.248;2023-03-31T07:18:34;4.80;;;2.77;;
30147;SDS011;16960;49.404;8.248;2023-03-31T07:21:02;4.63;;;3.10;;
30147;SDS011;16960;49.404;8.248;2023-03-31T07:23:31;6.37;;;3.43;;
30147;SDS011;16960;49.404;8.248;2023-03-31T07:25:58;4.90;;;2.83;;
30147;SDS011;16960;49.404;8.248;2023-03-31T07:28:26;6.83;;;3.70;;
30147;SDS011;16960;49.404;8.248;2023-03-31T07:30:55;5.33;;;3.40;;
30147;SDS011;16960;49.404;8.248;2023-03-31T07:33:22;4.90;;;3.47;;
30147;SDS011;16960;49.404;8.248;2023-03-31T07:35:49;6.83;;;4.33;;
30147;SDS011;16960;49.404;8.248;2023-03-31T07:38:16;5.30;;;3.63;;
30147;SDS011;16960;49.404;8.248;2023-03-31T07:40:43;4.17;;;3.53;;
30147;SDS011;16960;49.404;8.248;2023-03-31T07:43:10;4.47;;;4.07;;
30147;SDS011;16960;49.404;8.248;2023-03-31T07:45:37;7.43;;;3.73;;
30147;SDS011;16960;49.404;8.248;2023-03-31T07:48:07;8.30;;;3.67;;
30147;SDS011;16960;49.404;8.248;2023-03-31T07:50:33;3.77;;;3.13;;
30147;SDS011;16960;49.404;8.248;2023-03-31T07:53:00;4.40;;;3.20;;
30147;SDS011;16960;49.404;8.248;2023-03-31T07:55:27;4.57;;;3.60;;
30147;SDS011;16960;49.404;8.248;2023-03-31T07:57:54;4.97;;;3.90;;
30147;SDS011;16960;49.404;8.248;2023-03-31T08:00:21;3.90;;;3.30;;
30147;SDS011;16960;49.404;8.248;2023-03-31T08:02:49;3.90;;;3.60;;
30147;SDS011;16960;49.404;8.248;2023-03-31T08:05:17;7.93;;;3.20;;
30147;SDS011;16960;49.404;8.248;2023-03-31T08:07:46;6.27;;;3.03;;
30147;SDS011;16960;49.404;8.248;2023-03-31T08:10:14;5.50;;;3.40;;
30147;SDS011;16960;49.404;8.248;2023-03-31T08:12:43;5.30;;;3.17;;
30147;SDS011;16960;49.404;8.248;2023-03-31T08:15:10;3.57;;;3.20;;
30147;SDS011;16960;49.404;8.248;2023-03-31T08:17:38;3.50;;;3.10;;
30147;SDS011;16960;49.404;8.248;2023-03-31T08:20:06;4.60;;;3.57;;
30147;SDS011;16960;49.404;8.248;2023-03-31T08:22:36;5.60;;;3.63;;
30147;SDS011;16960;49.404;8.248;2023-03-31T08:25:03;2.77;;;2.57;;
30147;SDS011;16960;49.404;8.248;2023-03-31T08:27:32;5.40;;;2.97;;
30147;SDS011;16960;49.404;8.248;2023-03-31T08:29:59;3.40;;;2.50;;
30147;SDS011;16960;49.404;8.248;2023-03-31T08:32:29;3.93;;;2.70;;
30147;SDS011;16960;49.404;8.248;2023-03-31T08:34:57;3.73;;;3.00;;
30147;SDS011;16960;49.404;8.248;2023-03-31T08:37:24;3.83;;;3.03;;
30147;SDS011;16960;49.404;8.248;2023-03-31T08:39:53;3.77;;;2.70;;
30147;SDS011;16960;49.404;8.248;2023-03-31T08:42:21;4.10;;;3.00;;
30147;SDS011;16960;49.404;8.248;2023-03-31T08:44:56;4.10;;;2.83;;
30147;SDS011;16960;49.404;8.248;2023-03-31T08:47:28;3.73;;;2.53;;
30147;SDS011;16960;49.404;8.248;2023-03-31T08:49:58;3.23;;;2.73;;
30147;SDS011;16960;49.404;8.248;2023-03-31T08:52:31;4.60;;;2.73;;
30147;SDS011;16960;49.404;8.248;2023-03-31T08:55:04;5.23;;;3.00;;
30147;SDS011;16960;49.404;8.248;2023-03-31T08:57:37;3.30;;;3.00;;
30147;SDS011;16960;49.404;8.248;2023-03-31T09:00:12;3.70;;;3.10;;
30147;SDS011;16960;49.404;8.248;2023-03-31T09:02:42;4.77;;;3.10;;
30147;SDS011;16960;49.404;8.248;2023-03-31T09:08:03;4.23;;;2.80;;
30147;SDS011;16960;49.404;8.248;2023-03-31T09:10:40;4.30;;;2.43;;
30147;SDS011;16960;49.404;8.248;2023-03-31T09:13:35;4.17;;;2.57;;
30147;SDS011;16960;49.404;8.248;2023-03-31T09:16:12;7.50;;;2.87;;
30147;SDS011;16960;49.404;8.248;2023-03-31T09:18:41;5.03;;;2.40;;
30147;SDS011;16960;49.404;8.248;2023-03-31T09:21:11;7.00;;;2.50;;
30147;SDS011;16960;49.404;8.248;2023-03-31T09:23:45;4.73;;;2.57;;
30147;SDS011;16960;49.404;8.248;2023-03-31T09:26:23;3.30;;;3.00;;
30147;SDS011;16960;49.404;8.248;2023-03-31T09:28:54;3.30;;;2.60;;
30147;SDS011;16960;49.404;8.248;2023-03-31T09:31:24;3.27;;;2.40;;
30147;SDS011;16960;49.404;8.248;2023-03-31T09:33:53;3.43;;;2.33;;
30147;SDS011;16960;49.404;8.248;2023-03-31T09:36:25;6.63;;;2.73;;
30147;SDS011;16960;49.404;8.248;2023-03-31T09:38:52;3.00;;;1.97;;
30147;SDS011;16960;49.404;8.248;2023-03-31T09:41:20;4.20;;;2.20;;
30147;SDS011;16960;49.404;8.248;2023-03-31T09:43:48;2.30;;;1.83;;
30147;SDS011;16960;49.404;8.248;2023-03-31T09:46:17;2.30;;;1.77;;
30147;SDS011;16960;49.404;8.248;2023-03-31T09:48:54;2.20;;;2.00;;
30147;SDS011;16960;49.404;8.248;2023-03-31T09:51:26;2.60;;;2.00;;
30147;SDS011;16960;49.404;8.248;2023-03-31T09:53:57;3.73;;;2.30;;
30147;SDS011;16960;49.404;8.248;2023-03-31T09:56:31;2.90;;;2.30;;
30147;SDS011;16960;49.404;8.248;2023-03-31T09:59:16;3.67;;;2.33;;
30147;SDS011;16960;49.404;8.248;2023-03-31T10:01:45;4.30;;;2.33;;
30147;SDS011;16960;49.404;8.248;2023-03-31T10:04:16;3.93;;;2.37;;
30147;SDS011;16960;49.404;8.248;2023-03-31T10:06:46;2.53;;;1.97;;
30147;SDS011;16960;49.404;8.248;2023-03-31T10:09:14;4.00;;;2.00;;
30147;SDS011;16960;49.404;8.248;2023-03-31T10:11:51;6.20;;;2.27;;
30147;SDS011;16960;49.404;8.248;2023-03-31T10:14:25;2.07;;;1.87;;
30147;SDS011;16960;49.404;8.248;2023-03-31T10:16:57;2.10;;;1.70;;
30147;SDS011;16960;49.404;8.248;2023-03-31T10:19:30;2.33;;;2.13;;
30147;SDS011;16960;49.404;8.248;2023-03-31T10:21:59;3.67;;;2.10;;
30147;SDS011;16960;49.404;8.248;2023-03-31T10:24:34;2.83;;;2.13;;
30147;SDS011;16960;49.404;8.248;2023-03-31T10:27:03;3.00;;;1.90;;
30147;SDS011;16960;49.404;8.248;2023-03-31T10:29:33;2.63;;;1.70;;
30147;SDS011;16960;49.404;8.248;2023-03-31T10:32:02;4.40;;;1.90;;
30147;SDS011;16960;49.404;8.248;2023-03-31T10:34:30;3.50;;;1.90;;
30147;SDS011;16960;49.404;8.248;2023-03-31T10:36:58;4.43;;;2.50;;
30147;SDS011;16960;49.404;8.248;2023-03-31T10:39:28;3.90;;;1.70;;
30147;SDS011;16960;49.404;8.248;2023-03-31T10:41:57;4.00;;;1.97;;
30147;SDS011;16960;49.404;8.248;2023-03-31T10:44:32;4.00;;;1.93;;
30147;SDS011;16960;49.404;8.248;2023-03-31T10:47:03;2.43;;;1.57;;
30147;SDS011;16960;49.404;8.248;2023-03-31T10:49:36;2.50;;;1.73;;
30147;SDS011;16960;49.404;8.248;2023-03-31T10:52:08;4.40;;;1.60;;
30147;SDS011;16960;49.404;8.248;2023-03-31T10:54:48;1.73;;;1.63;;
30147;SDS011;16960;49.404;8.248;2023-03-31T10:57:16;2.40;;;1.70;;
30147;SDS011;16960;49.404;8.248;2023-03-31T10:59:53;3.40;;;1.60;;
30147;SDS011;16960;49.404;8.248;2023-03-31T11:02:46;1.70;;;1.20;;
30147;SDS011;16960;49.404;8.248;2023-03-31T11:05:34;2.40;;;1.30;;
30147;SDS011;16960;49.404;8.248;2023-03-31T11:08:12;2.90;;;1.93;;
30147;SDS011;16960;49.404;8.248;2023-03-31T11:10:52;2.03;;;1.03;;
30147;SDS011;16960;49.404;8.248;2023-03-31T11:13:40;2.80;;;1.80;;
30147;SDS011;16960;49.404;8.248;2023-03-31T11:16:17;2.63;;;1.53;;
30147;SDS011;16960;49.404;8.248;2023-03-31T11:21:40;2.60;;;1.70;;
30147;SDS011;16960;49.404;8.248;2023-03-31T11:24:18;2.37;;;1.27;;
30147;SDS011;16960;49.404;8.248;2023-03-31T11:26:58;1.40;;;1.30;;
30147;SDS011;16960;49.404;8.248;2023-03-31T11:29:34;3.77;;;1.47;;
30147;SDS011;16960;49.404;8.248;2023-03-31T11:32:24;2.80;;;1.40;;
30147;SDS011;16960;49.404;8.248;2023-03-31T11:35:13;5.53;;;2.00;;
30147;SDS011;16960;49.404;8.248;2023-03-31T11:37:57;3.93;;;1.57;;
30147;SDS011;16960;49.404;8.248;2023-03-31T11:40:43;5.03;;;1.50;;
30147;SDS011;16960;49.404;8.248;2023-03-31T11:43:22;3.93;;;1.53;;
30147;SDS011;16960;49.404;8.248;2023-03-31T11:45:54;2.67;;;1.13;;
30147;SDS011;16960;49.404;8.248;2023-03-31T11:48:30;2.77;;;1.30;;
30147;SDS011;16960;49.404;8.248;2023-03-31T11:51:02;4.30;;;1.43;;
30147;SDS011;16960;49.404;8.248;2023-03-31T11:53:32;1.63;;;1.10;;
30147;SDS011;16960;49.404;8.248;2023-03-31T11:56:02;2.67;;;1.67;;
30147;SDS011;16960;49.404;8.248;2023-03-31T11:58:33;2.57;;;1.43;;
30147;SDS011;16960;49.404;8.248;2023-03-31T12:01:05;6.23;;;1.37;;
30147;SDS011;16960;49.404;8.248;2023-03-31T12:03:42;2.87;;;1.40;;
30147;SDS011;16960;49.404;8.248;2023-03-31T12:06:17;2.10;;;1.30;;
30147;SDS011;16960;49.404;8.248;2023-03-31T12:08:49;2.33;;;1.10;;
30147;SDS011;16960;49.404;8.248;2023-03-31T12:11:30;2.17;;;1.13;;
30147;SDS011;16960;49.404;8.248;2023-03-31T12:14:03;2.23;;;0.93;;
30147;SDS011;16960;49.404;8.248;2023-03-31T12:16:44;2.93;;;1.20;;
30147;SDS011;16960;49.404;8.248;2023-03-31T12:19:16;2.37;;;1.43;;
30147;SDS011;16960;49.404;8.248;2023-03-31T12:21:48;2.40;;;1.13;;
30147;SDS011;16960;49.404;8.248;2023-03-31T12:24:18;1.80;;;1.10;;
30147;SDS011;16960;49.404;8.248;2023-03-31T12:26:48;1.60;;;1.27;;
30147;SDS011;16960;49.404;8.248;2023-03-31T12:29:24;2.30;;;1.43;;
30147;SDS011;16960;49.404;8.248;2023-03-31T12:31:57;0.90;;;0.50;;
30147;SDS011;16960;49.404;8.248;2023-03-31T12:34:30;1.50;;;0.93;;
30147;SDS011;16960;49.404;8.248;2023-03-31T12:37:06;2.27;;;0.90;;
30147;SDS011;16960;49.404;8.248;2023-03-31T12:40:09;2.13;;;1.40;;
30147;SDS011;16960;49.404;8.248;2023-03-31T12:42:53;2.37;;;1.03;;
30147;SDS011;16960;49.404;8.248;2023-03-31T12:45:35;1.50;;;1.17;;
30147;SDS011;16960;49.404;8.248;2023-03-31T12:51:08;2.47;;;0.70;;
30147;SDS011;16960;49.404;8.248;2023-03-31T12:53:49;1.50;;;1.07;;
30147;SDS011;16960;49.404;8.248;2023-03-31T12:56:27;1.73;;;0.77;;
30147;SDS011;16960;49.404;8.248;2023-03-31T12:58:59;1.10;;;0.70;;
30147;SDS011;16960;49.404;8.248;2023-03-31T13:02:10;2.87;;;0.83;;
30147;SDS011;16960;49.404;8.248;2023-03-31T13:04:46;1.90;;;0.80;;
30147;SDS011;16960;49.404;8.248;2023-03-31T13:10:28;2.30;;;0.70;;
30147;SDS011;16960;49.404;8.248;2023-03-31T13:12:57;1.63;;;1.23;;
30147;SDS011;16960;49.404;8.248;2023-03-31T13:15:28;1.27;;;0.70;;
30147;SDS011;16960;49.404;8.248;2023-03-31T13:17:56;2.40;;;0.90;;
30147;SDS011;16960;49.404;8.248;2023-03-31T13:20:34;1.43;;;0.70;;
30147;SDS011;16960;49.404;8.248;2023-03-31T13:23:06;2.53;;;0.80;;
30147;SDS011;16960;49.404;8.248;2023-03-31T13:25:45;1.50;;;0.77;;
30147;SDS011;16960;49.404;8.248;2023-03-31T13:28:24;1.43;;;0.83;;
30147;SDS011;16960;49.404;8.248;2023-03-31T13:30:54;1.77;;;0.83;;
30147;SDS011;16960;49.404;8.248;2023-03-31T13:33:35;1.50;;;0.87;;
30147;SDS011;16960;49.404;8.248;2023-03-31T13:36:17;2.73;;;1.03;;
30147;SDS011;16960;49.404;8.248;2023-03-31T13:39:06;1.50;;;0.60;;
30147;SDS011;16960;49.404;8.248;2023-03-31T13:41:50;1.23;;;0.70;;
30147;SDS011;16960;49.404;8.248;2023-03-31T13:44:28;1.53;;;0.83;;
30147;SDS011;16960;49.404;8.248;2023-03-31T13:47:22;2.10;;;0.90;;
30147;SDS011;16960;49.404;8.248;2023-03-31T13:50:14;1.20;;;0.77;;
30147;SDS011;16960;49.404;8.248;2023-03-31T13:52:51;2.50;;;1.30;;
30147;SDS011;16960;49.404;8.248;2023-03-31T13:55:28;1.90;;;0.90;;
30147;SDS011;16960;49.404;8.248;2023-03-31T13:58:24;1.10;;;0.80;;
30147;SDS011;16960;49.404;8.248;2023-03-31T14:01:14;1.40;;;0.70;;
30147;SDS011;16960;49.404;8.248;2023-03-31T14:04:02;3.37;;;1.10;;
30147;SDS011;16960;49.404;8.248;2023-03-31T14:06:48;1.00;;;0.50;;
30147;SDS011;16960;49.404;8.248;2023-03-31T14:09:21;2.60;;;0.90;;
30147;SDS011;16960;49.404;8.248;2023-03-31T14:11:51;2.13;;;0.93;;
30147;SDS011;16960;49.404;8.248;2023-03-31T14:14:20;2.90;;;1.10;;
30147;SDS011;16960;49.404;8.248;2023-03-31T14:16:49;3.60;;;1.13;;
30147;SDS011;16960;49.404;8.248;2023-03-31T14:19:27;2.07;;;1.37;;
30147;SDS011;16960;49.404;8.248;2023-03-31T14:22:06;6.23;;;1.03;;
30147;SDS011;16960;49.404;8.248;2023-03-31T14:24:43;2.90;;;1.07;;
30147;SDS011;16960;49.404;8.248;2023-03-31T14:27:19;1.83;;;0.90;;
30147;SDS011;16960;49.404;8.248;2023-03-31T14:30:05;2.73;;;0.97;;
30147;SDS011;16960;49.404;8.248;2023-03-31T14:32:42;2.13;;;1.00;;
30147;SDS011;16960;49.404;8.248;2023-03-31T14:35:23;2.03;;;0.73;;
30147;SDS011;16960;49.404;8.248;2023-03-31T14:37:56;3.30;;;1.13;;
30147;SDS011;16960;49.404;8.248;2023-03-31T14:40:25;1.43;;;0.73;;
30147;SDS011;16960;49.404;8.248;2023-03-31T14:42:52;1.63;;;0.50;;
30147;SDS011;16960;49.404;8.248;2023-03-31T14:45:21;6.50;;;0.77;;
30147;SDS011;16960;49.404;8.248;2023-03-31T14:47:56;3.07;;;0.87;;
30147;SDS011;16960;49.404;8.248;2023-03-31T14:50:27;3.23;;;1.00;;
30147;SDS011;16960;49.404;8.248;2023-03-31T14:52:56;4.73;;;0.93;;
30147;SDS011;16960;49.404;8.248;2023-03-31T14:55:25;2.30;;;1.00;;
30147;SDS011;16960;49.404;8.248;2023-03-31T14:57:53;2.83;;;0.97;;
30147;SDS011;16960;49.404;8.248;2023-03-31T15:00:23;1.53;;;0.80;;
30147;SDS011;16960;49.404;8.248;2023-03-31T15:02:52;4.60;;;1.00;;
30147;SDS011;16960;49.404;8.248;2023-03-31T15:05:21;3.07;;;0.87;;
30147;SDS011;16960;49.404;8.248;2023-03-31T15:07:55;2.03;;;0.87;;
30147;SDS011;16960;49.404;8.248;2023-03-31T15:10:23;3.40;;;1.10;;
30147;SDS011;16960;49.404;8.248;2023-03-31T15:12:50;1.70;;;0.80;;
30147;SDS011;16960;49.404;8.248;2023-03-31T15:15:19;7.03;;;1.07;;
30147;SDS011;16960;49.404;8.248;2023-03-31T15:17:47;2.93;;;0.90;;
30147;SDS011;16960;49.404;8.248;2023-03-31T15:20:26;1.43;;;0.83;;
30147;SDS011;16960;49.404;8.248;2023-03-31T15:22:56;1.40;;;0.70;;
30147;SDS011;16960;49.404;8.248;2023-03-31T15:25:25;1.73;;;0.83;;
30147;SDS011;16960;49.404;8.248;2023-03-31T15:27:55;3.00;;;0.87;;
30147;SDS011;16960;49.404;8.248;2023-03-31T15:30:25;2.60;;;1.10;;
30147;SDS011;16960;49.404;8.248;2023-03-31T15:32:55;1.70;;;0.90;;
30147;SDS011;16960;49.404;8.248;2023-03-31T15:35:24;3.60;;;0.80;;
30147;SDS011;16960;49.404;8.248;2023-03-31T15:37:54;1.63;;;0.80;;